Strona główna
Zdjęcia satelitarne 10-dni prognozyKlimatMeteorologia morska Cyklony Błyskawica LotniskoFAQ Gazetka O
Pogoda : Europa Afryka Ameryka Północna Ameryka Południowa Azja Australia-Oceania Inny
Języki Kontakt

Kraków, Polska

Port lotniczy Kraków-Balice

Szerokość geograficzna: 50-05N, Długość geograficzna: 019-48E, wysokość: 237 m


METAR: EPKK 281330Z 26006KT 220V300 9999 FEW040 BKN053 14/04 Q1017
TAF: EPKK 281130Z 2812/2912 27006KT 9999 SCT045 TEMPO 2822/2905 2000 BR

czas: 15:47 (13:47 UTC)

Aktualna obserwacja pogody

Raport powstał 17 minut temu, godzina 13:30 UTC
Wiatr 6 kt od zachód, zmienny między południowy zachód i zachodnio-północny zachód
Temperatura 14°C
Wilgotność 51%
Ciśnienie 1017 hPa
Widzialność 10 km lub więcej
Mało chmury na wysokości 4000 ft
Przerywane chmury na wysokości 5300 ft

Jednostka miary

Prognoza

Raport powstał 2 godziny i 17 minut temu, godzina 11:30 UTC
Prognoza ważna od 28 godzina 12 UTC do 29 godzina 12 UTC
Wiatr 6 kt od zachód
Widzialność 10 km lub więcej
Rozproszone chmury na wysokości 4500 ft
Przejściowo
od 28 godzina 22 UTC do 29 godzina 05 UTC
Widzialność: 2000 m
zamglenie
Informacje na tej stronie internetowej podlegają klauzuli o wyłączeniu odpowiedzialności
Pogoda : Europa Afryka Ameryka Północna Ameryka Południowa Azja Australia-Oceania Inny
Zdjęcia satelitarne 10-dni prognozyKlimatMeteorologia morska Cyklony Błyskawica LotniskoFAQ Języki Kontakt Gazetka O